Главная страница
METAR-TAF:

METAR-TAF

Аэропорты :

Сент-Катаринс, Онтарио, Канада

широта: 43-12N, долгота: 079-10W, высота над уровнем моря: 98 м

Текущие метеонаблюдения

Эта сводка был подготовлена 23 минут назад, в 11:00 UTC
Ветер 2 Узел переменных направлений
Температура 13°C
Влажность 100%
Давление 1013 hPa
Видимость: 9.7 км
Рассеянная облачность на высоте 25000 фута
дымка, Тонкий туман

METAR: CYSN 241100Z VRB02KT 6SM BR MIFG BKN250 13/13 A2992 RMK CI7 SLP132

Время: 07:23 (11:23 UTC)

Прогноз

Эта сводка был подготовлена 15 часа и 45 минут назад, в 19:38 UTC
Прогноз действительный с 23-го 20 UTC до 24-го 01 UTC
Ветер 12 Узел от западно-северо-западный
Видимость: 10 км
небольшая облачность на высоте 5000 фута
изменения
С 24-го 00 UTC до 24-го 01 UTC
Ветер 7 Узел от западный-юго-западный

TAF: CYSN 231938Z 2320/2401 29012KT P6SM FEW050 BECMG 2400/2401 25007KT RMK NXT FCST WILL BE ISSUED AT 241245Z

Метеонаблюдения и прогнозы для более 4000 аэропортов (сводки METAR и TAF).

Имеющиеся станции представлены на карте желтыми и красными точками.

Чтобы увидеть название станции, наведите на нее мышь.

Затем щелкните, чтобы увидеть метеонаблюдения и метеопрогнозы.

Управление картой: чтобы увеличить масштаб, щелкните зеленые кнопки с черным крестиком; чтобы уменьшить масштаб, щелкните зеленую кнопку с тире; для просмотра соседних карт щелкайте зеленые стрелки.


METAR-TAF: